createdAt,value
2022-08-31T00:00:15.989Z,13.35
2022-08-31T00:03:02.005Z,12.70
2022-08-31T00:05:30.447Z,9.57
2022-08-31T00:07:58.317Z,15.18
2022-08-31T00:10:31.877Z,11.75
2022-08-31T00:13:02.959Z,10.82
2022-08-31T00:15:31.431Z,8.70
2022-08-31T00:17:59.606Z,12.88
2022-08-31T00:20:32.721Z,9.85
2022-08-31T00:23:02.504Z,11.05
2022-08-31T00:25:30.864Z,14.27
2022-08-31T00:27:58.937Z,9.52
2022-08-31T00:30:27.176Z,15.55
2022-08-31T00:32:58.251Z,13.75
2022-08-31T00:35:27.646Z,9.95
2022-08-31T00:37:55.673Z,11.20
2022-08-31T00:40:23.916Z,8.23
2022-08-31T00:42:52.042Z,10.45
2022-08-31T00:45:20.187Z,12.25
2022-08-31T00:47:48.122Z,11.15
2022-08-31T00:50:17.221Z,13.43
2022-08-31T00:52:49.672Z,13.93
2022-08-31T00:55:20.915Z,11.57
2022-08-31T00:57:50.939Z,10.85
2022-08-31T01:00:21.076Z,14.10
2022-08-31T01:02:49.812Z,9.75
2022-08-31T01:05:18.432Z,13.07
2022-08-31T01:07:48.950Z,12.82
2022-08-31T01:10:17.958Z,15.05
2022-08-31T01:12:47.350Z,11.32
2022-08-31T01:15:18.428Z,13.00
2022-08-31T01:17:47.945Z,8.95
2022-08-31T01:20:21.836Z,12.05
2022-08-31T01:22:52.856Z,9.98
2022-08-31T01:25:21.243Z,12.93
2022-08-31T01:27:49.343Z,13.13
2022-08-31T01:30:22.742Z,13.35
2022-08-31T01:32:51.074Z,15.27
2022-08-31T01:35:19.231Z,13.45
2022-08-31T01:37:47.077Z,9.95
2022-08-31T01:40:15.150Z,13.45
2022-08-31T01:42:43.162Z,11.93
2022-08-31T01:45:11.719Z,14.82
2022-08-31T01:47:41.148Z,12.75
2022-08-31T01:50:09.429Z,16.52
2022-08-31T01:52:38.070Z,10.73
2022-08-31T01:55:07.325Z,12.27
2022-08-31T01:57:35.683Z,11.10
2022-08-31T02:00:06.435Z,10.88
2022-08-31T02:02:34.799Z,10.00
2022-08-31T02:05:02.955Z,11.23
2022-08-31T02:07:30.959Z,12.00
2022-08-31T02:09:58.735Z,10.55
2022-08-31T02:12:26.774Z,11.77
2022-08-31T02:14:55.034Z,13.40
2022-08-31T02:17:23.021Z,10.63
2022-08-31T02:19:51.118Z,15.00
2022-08-31T02:22:19.545Z,13.75
2022-08-31T02:24:47.508Z,15.55
2022-08-31T02:27:15.754Z,13.82
2022-08-31T02:29:43.632Z,15.80
2022-08-31T02:32:19.645Z,12.88
2022-08-31T02:34:49.582Z,18.67
2022-08-31T02:37:17.753Z,13.65
2022-08-31T02:39:48.739Z,17.27
2022-08-31T02:42:18.486Z,14.82
2022-08-31T02:44:47.218Z,12.68
2022-08-31T02:47:15.366Z,12.90
2022-08-31T02:49:43.476Z,14.15
2022-08-31T02:52:11.370Z,13.43
2022-08-31T02:54:39.294Z,10.82
2022-08-31T02:57:07.163Z,18.38
2022-08-31T02:59:35.091Z,13.70
2022-08-31T03:02:03.153Z,11.30
2022-08-31T03:04:31.915Z,10.85
2022-08-31T03:06:59.847Z,13.43
2022-08-31T03:09:27.775Z,15.20
2022-08-31T03:11:55.735Z,13.13
2022-08-31T03:14:23.936Z,16.25
2022-08-31T03:16:52.032Z,13.25
2022-08-31T03:19:20.752Z,11.10
2022-08-31T03:21:49.019Z,12.52
2022-08-31T03:24:27.191Z,11.30
2022-08-31T03:29:23.174Z,17.13
2022-08-31T03:31:50.958Z,17.08
2022-08-31T03:34:18.660Z,12.77
2022-08-31T03:36:46.548Z,14.10
2022-08-31T03:39:14.656Z,14.77
2022-08-31T03:41:42.592Z,14.38
2022-08-31T03:44:10.397Z,20.60
2022-08-31T03:46:39.056Z,12.32
2022-08-31T03:49:07.594Z,13.55
2022-08-31T03:51:38.858Z,13.93
2022-08-31T03:56:34.534Z,12.88
2022-08-31T03:59:02.429Z,16.55
2022-08-31T04:01:30.401Z,12.63
2022-08-31T04:03:58.974Z,14.10
2022-08-31T04:06:26.808Z,9.10
2022-08-31T04:08:54.940Z,10.80
2022-08-31T04:11:44.305Z,10.95
2022-08-31T04:14:15.502Z,9.32
2022-08-31T04:16:44.936Z,12.20
2022-08-31T04:19:15.838Z,10.70
2022-08-31T04:21:45.310Z,14.05
2022-08-31T04:24:13.308Z,14.10
2022-08-31T04:26:42.102Z,11.40
2022-08-31T04:29:13.369Z,11.20
2022-08-31T04:31:41.669Z,12.45
2022-08-31T04:34:09.747Z,12.80
2022-08-31T04:36:38.692Z,14.57
2022-08-31T04:39:07.995Z,9.45
2022-08-31T04:41:37.018Z,9.27
2022-08-31T04:44:05.246Z,9.27
2022-08-31T04:46:33.401Z,8.68
2022-08-31T04:49:01.364Z,11.43
2022-08-31T04:51:30.683Z,14.15
2022-08-31T04:53:59.204Z,10.05
2022-08-31T04:56:28.782Z,8.82
2022-08-31T04:58:58.244Z,14.77
2022-08-31T05:01:27.506Z,14.27
2022-08-31T05:03:57.270Z,9.30
2022-08-31T05:06:29.674Z,7.78
2022-08-31T05:08:59.478Z,8.88
2022-08-31T05:11:27.992Z,11.30
2022-08-31T05:13:57.642Z,9.65
2022-08-31T05:16:25.708Z,9.05
2022-08-31T05:18:53.888Z,10.55
2022-08-31T05:21:32.196Z,10.48
2022-08-31T05:24:01.168Z,10.75
2022-08-31T05:26:31.701Z,9.20
2022-08-31T05:29:02.986Z,10.40
2022-08-31T05:31:34.682Z,11.77
2022-08-31T05:34:02.622Z,11.43
2022-08-31T05:36:30.723Z,9.02
2022-08-31T05:39:01.248Z,12.27
2022-08-31T05:41:30.498Z,8.52
2022-08-31T05:43:58.921Z,9.10
2022-08-31T05:46:26.868Z,8.95
2022-08-31T05:48:54.983Z,13.15
2022-08-31T05:51:23.066Z,10.95
2022-08-31T05:53:51.462Z,10.50
2022-08-31T05:56:21.307Z,11.32
2022-08-31T05:58:49.934Z,10.43
2022-08-31T06:01:22.440Z,9.98
2022-08-31T06:03:50.768Z,11.95
2022-08-31T06:06:18.774Z,10.68
2022-08-31T06:08:46.766Z,11.27
2022-08-31T06:11:16.704Z,11.23
2022-08-31T06:13:44.881Z,9.25
2022-08-31T06:16:13.056Z,11.52
2022-08-31T06:18:42.372Z,10.60
2022-08-31T06:21:11.507Z,13.60
2022-08-31T06:23:46.153Z,9.20
2022-08-31T06:26:16.208Z,10.00
2022-08-31T06:28:45.905Z,11.55
2022-08-31T06:31:31.230Z,9.93
2022-08-31T06:33:59.930Z,9.82
2022-08-31T06:36:29.546Z,11.85
2022-08-31T06:38:58.106Z,10.95
2022-08-31T06:41:36.422Z,11.48
2022-08-31T06:44:09.284Z,11.30
2022-08-31T06:46:37.795Z,10.30
2022-08-31T06:49:08.878Z,7.55
2022-08-31T06:51:39.078Z,12.18
2022-08-31T06:54:27.867Z,9.45
2022-08-31T06:56:57.968Z,13.77
2022-08-31T06:59:28.864Z,9.43
2022-08-31T07:01:58.031Z,10.10
2022-08-31T07:04:25.978Z,10.52
2022-08-31T07:06:53.886Z,10.23
2022-08-31T07:09:22.043Z,9.77
2022-08-31T07:11:51.420Z,10.55
2022-08-31T07:14:23.335Z,14.13
2022-08-31T07:16:51.723Z,12.32
2022-08-31T07:19:20.064Z,11.48
2022-08-31T07:21:49.694Z,10.70
2022-08-31T07:24:19.510Z,10.60
2022-08-31T07:26:51.692Z,11.60
2022-08-31T07:29:21.370Z,9.10
2022-08-31T07:31:49.600Z,9.45
2022-08-31T07:34:20.844Z,11.20
2022-08-31T07:37:07.688Z,11.52
2022-08-31T07:39:54.339Z,10.98
2022-08-31T07:42:30.081Z,10.55
2022-08-31T07:44:59.913Z,8.60
2022-08-31T07:47:30.300Z,12.05
2022-08-31T07:49:59.704Z,9.82
2022-08-31T07:52:31.449Z,6.93
2022-08-31T07:55:08.939Z,9.38
2022-08-31T07:57:39.178Z,14.40
2022-08-31T08:00:10.834Z,8.70
2022-08-31T08:02:39.697Z,12.68
2022-08-31T08:05:09.900Z,10.43
2022-08-31T08:07:39.089Z,10.50
2022-08-31T08:10:08.871Z,9.70
2022-08-31T08:12:38.027Z,10.13
2022-08-31T08:15:06.406Z,13.55
2022-08-31T08:17:34.556Z,13.30
2022-08-31T08:20:02.659Z,10.52
2022-08-31T08:22:50.962Z,12.43
2022-08-31T08:25:25.961Z,11.82
2022-08-31T08:27:54.843Z,11.82
2022-08-31T08:30:22.956Z,12.32
2022-08-31T08:32:50.846Z,13.73
2022-08-31T08:35:19.020Z,11.75
2022-08-31T08:37:59.123Z,14.68
2022-08-31T08:40:33.837Z,12.00
2022-08-31T08:43:03.530Z,13.75
2022-08-31T08:45:31.842Z,15.15
2022-08-31T08:48:00.172Z,11.30
2022-08-31T08:50:29.518Z,15.18
2022-08-31T08:52:58.723Z,15.80
2022-08-31T08:55:30.039Z,14.40
2022-08-31T09:00:27.585Z,21.48
2022-08-31T09:03:02.411Z,20.40
2022-08-31T09:05:36.650Z,25.08
2022-08-31T09:08:11.308Z,16.52
2022-08-31T09:10:43.358Z,16.88
2022-08-31T09:13:13.974Z,17.35
2022-08-31T09:15:49.379Z,14.07
2022-08-31T09:18:30.261Z,17.63
2022-08-31T09:21:09.385Z,17.55
2022-08-31T09:23:38.710Z,16.33
2022-08-31T09:26:08.602Z,16.23
2022-08-31T09:28:46.040Z,16.77
2022-08-31T09:31:33.878Z,21.98
2022-08-31T09:34:02.729Z,17.15
2022-08-31T09:36:35.260Z,20.42
2022-08-31T09:39:14.773Z,17.90
2022-08-31T09:41:43.319Z,19.17
2022-08-31T09:44:20.885Z,22.42
2022-08-31T09:46:50.143Z,21.30
2022-08-31T09:49:28.172Z,18.77
2022-08-31T09:52:16.245Z,15.73
2022-08-31T09:55:13.130Z,20.52
2022-08-31T09:58:00.383Z,20.52
2022-08-31T10:00:32.937Z,19.88
2022-08-31T10:03:27.141Z,24.80
2022-08-31T10:05:56.260Z,22.10
2022-08-31T10:08:30.013Z,15.68
2022-08-31T10:10:59.919Z,19.77
2022-08-31T10:13:40.025Z,18.48
2022-08-31T10:16:27.359Z,20.95
2022-08-31T10:19:04.399Z,21.35
2022-08-31T10:21:40.293Z,20.40
2022-08-31T10:24:29.576Z,21.40
2022-08-31T10:27:32.705Z,15.90
2022-08-31T10:30:20.735Z,18.83
2022-08-31T10:33:01.203Z,20.17
2022-08-31T10:35:38.530Z,17.38
2022-08-31T10:38:22.492Z,18.25
2022-08-31T10:40:50.405Z,19.15
2022-08-31T10:43:22.533Z,21.90
2022-08-31T10:48:20.203Z,15.73
2022-08-31T10:50:52.412Z,16.63
2022-08-31T10:53:43.765Z,16.50
2022-08-31T10:56:24.125Z,23.02
2022-08-31T10:59:18.410Z,18.27
2022-08-31T11:01:53.274Z,17.02
2022-08-31T11:04:34.618Z,18.55
2022-08-31T11:07:02.764Z,15.65
2022-08-31T11:09:34.770Z,16.05
2022-08-31T11:12:08.467Z,18.08
2022-08-31T11:14:54.525Z,18.33
2022-08-31T11:17:51.514Z,19.08
2022-08-31T11:20:22.394Z,18.23
2022-08-31T11:23:09.065Z,17.88
2022-08-31T11:25:36.919Z,21.63
2022-08-31T11:28:13.176Z,20.02
2022-08-31T11:30:51.066Z,20.52
2022-08-31T11:33:23.213Z,18.30
2022-08-31T11:35:50.971Z,15.65
2022-08-31T11:38:37.344Z,17.80
2022-08-31T11:41:06.940Z,17.35
2022-08-31T11:43:34.768Z,18.77
2022-08-31T11:46:27.204Z,16.27
2022-08-31T11:48:56.123Z,17.38
2022-08-31T11:51:40.770Z,23.10
2022-08-31T11:54:12.408Z,21.70
2022-08-31T11:56:42.224Z,21.13
2022-08-31T11:59:39.528Z,17.40
2022-08-31T12:02:25.310Z,16.95
2022-08-31T12:05:01.921Z,18.13
2022-08-31T12:07:31.488Z,17.65
2022-08-31T12:10:27.571Z,21.48
2022-08-31T12:13:25.490Z,21.63
2022-08-31T12:16:20.404Z,20.08
2022-08-31T12:18:51.360Z,21.15
2022-08-31T12:21:56.825Z,23.08
2022-08-31T12:24:30.704Z,21.55
2022-08-31T12:27:01.533Z,24.55
2022-08-31T12:29:34.051Z,20.95
2022-08-31T12:32:01.972Z,24.10
2022-08-31T12:34:30.802Z,22.73
2022-08-31T12:36:58.899Z,23.55
2022-08-31T12:39:28.409Z,19.50
2022-08-31T12:42:01.460Z,18.33
2022-08-31T12:44:33.946Z,18.38
2022-08-31T12:47:24.438Z,18.73
2022-08-31T12:50:09.267Z,16.45
2022-08-31T12:52:48.074Z,15.90
2022-08-31T12:55:23.348Z,17.33
2022-08-31T12:57:52.099Z,17.00
2022-08-31T13:00:22.188Z,16.90
2022-08-31T13:02:52.732Z,15.90
2022-08-31T13:05:23.740Z,15.98
2022-08-31T13:07:51.937Z,16.33
2022-08-31T13:10:25.959Z,17.27
2022-08-31T13:12:55.596Z,19.42
2022-08-31T13:15:28.867Z,15.80
2022-08-31T13:17:57.700Z,15.63
2022-08-31T13:20:28.112Z,12.43
2022-08-31T13:23:01.117Z,13.07
2022-08-31T13:25:51.894Z,10.68
2022-08-31T13:28:23.533Z,10.65
2022-08-31T13:31:02.861Z,11.70
2022-08-31T13:33:34.133Z,12.55
2022-08-31T13:36:18.118Z,11.32
2022-08-31T13:38:53.210Z,11.63
2022-08-31T13:41:31.408Z,16.50
2022-08-31T13:44:06.876Z,14.27
2022-08-31T13:46:44.694Z,14.20
2022-08-31T13:49:33.535Z,11.40
2022-08-31T13:52:03.316Z,9.40
2022-08-31T13:54:32.918Z,10.50
2022-08-31T13:57:34.961Z,9.93
2022-08-31T14:00:21.887Z,13.85
2022-08-31T14:02:57.409Z,10.63
2022-08-31T14:05:33.469Z,11.02
2022-08-31T14:08:03.444Z,9.50
2022-08-31T14:10:36.846Z,11.27
2022-08-31T14:13:04.847Z,9.57
2022-08-31T14:15:36.804Z,13.88
2022-08-31T14:18:25.793Z,15.20
2022-08-31T14:21:21.772Z,11.27
2022-08-31T14:23:50.551Z,12.63
2022-08-31T14:26:24.176Z,13.20
2022-08-31T14:28:54.418Z,12.88
2022-08-31T14:31:26.329Z,14.10
2022-08-31T14:33:57.202Z,14.82
2022-08-31T14:36:27.362Z,12.82
2022-08-31T14:38:55.533Z,15.13
2022-08-31T14:41:28.424Z,17.33
2022-08-31T14:43:58.022Z,12.65
2022-08-31T14:46:29.471Z,13.00
2022-08-31T14:48:57.588Z,12.55
2022-08-31T14:51:25.854Z,13.02
2022-08-31T14:53:58.112Z,12.98
2022-08-31T14:56:30.474Z,16.88
2022-08-31T14:58:59.820Z,13.57
2022-08-31T15:01:30.282Z,14.45
2022-08-31T15:03:58.769Z,11.95
2022-08-31T15:06:28.872Z,14.05
2022-08-31T15:08:56.848Z,9.90
2022-08-31T15:11:25.375Z,14.98
2022-08-31T15:13:54.960Z,13.80
2022-08-31T15:16:28.260Z,13.80
2022-08-31T15:18:57.395Z,13.27
2022-08-31T15:21:27.842Z,11.80
2022-08-31T15:23:55.850Z,10.60
2022-08-31T15:26:24.266Z,15.20
2022-08-31T15:28:55.003Z,12.68
2022-08-31T15:31:24.853Z,12.25
2022-08-31T15:33:53.742Z,16.10
2022-08-31T15:36:26.027Z,14.52
2022-08-31T15:38:56.827Z,18.48
2022-08-31T15:41:25.523Z,13.88
2022-08-31T15:43:53.526Z,12.55
2022-08-31T15:46:45.089Z,13.68
2022-08-31T15:51:50.283Z,13.80
2022-08-31T15:54:22.612Z,13.27
2022-08-31T15:56:51.872Z,11.25
2022-08-31T15:59:20.164Z,12.77
2022-08-31T16:01:47.956Z,15.10
2022-08-31T16:04:24.910Z,16.77
2022-08-31T16:06:53.839Z,14.70
2022-08-31T16:09:22.567Z,14.05
2022-08-31T16:11:51.352Z,14.00
2022-08-31T16:14:20.639Z,10.65
2022-08-31T16:16:49.583Z,14.90
2022-08-31T16:19:34.222Z,13.93
2022-08-31T16:22:04.754Z,12.05
2022-08-31T16:24:37.382Z,11.48
2022-08-31T16:27:07.608Z,15.32
2022-08-31T16:29:35.825Z,12.88
2022-08-31T16:32:05.328Z,13.35
2022-08-31T16:34:35.940Z,13.27
2022-08-31T16:37:09.092Z,10.00
2022-08-31T16:39:42.821Z,14.18
2022-08-31T16:42:15.102Z,11.02
2022-08-31T16:44:46.333Z,14.32
2022-08-31T16:47:15.540Z,12.63
2022-08-31T16:49:45.012Z,11.10
2022-08-31T16:52:28.362Z,11.40
2022-08-31T16:54:58.382Z,13.88
2022-08-31T16:57:30.586Z,12.32
2022-08-31T16:59:59.178Z,14.63
2022-08-31T17:02:28.012Z,13.88
2022-08-31T17:04:57.685Z,13.30
2022-08-31T17:07:26.259Z,13.43
2022-08-31T17:10:05.310Z,13.55
2022-08-31T17:12:33.695Z,16.88
2022-08-31T17:15:01.664Z,12.63
2022-08-31T17:17:29.845Z,14.45
2022-08-31T17:20:00.010Z,14.55
2022-08-31T17:22:32.983Z,13.20
2022-08-31T17:25:05.507Z,15.25
2022-08-31T17:27:34.602Z,13.68
2022-08-31T17:30:08.821Z,14.23
2022-08-31T17:32:45.342Z,11.70
2022-08-31T17:35:14.040Z,15.90
2022-08-31T17:37:44.532Z,16.08
2022-08-31T17:40:15.537Z,18.20
2022-08-31T17:42:43.698Z,13.90
2022-08-31T17:45:11.839Z,17.92
2022-08-31T17:47:41.152Z,17.35
2022-08-31T17:50:09.385Z,14.20
2022-08-31T17:52:37.476Z,16.42
2022-08-31T17:55:05.876Z,17.40
2022-08-31T17:57:33.986Z,15.45
2022-08-31T18:00:01.866Z,17.75
2022-08-31T18:02:35.814Z,18.35
2022-08-31T18:05:09.555Z,13.35
2022-08-31T18:07:40.449Z,16.15
2022-08-31T18:10:08.631Z,14.40
2022-08-31T18:12:42.258Z,16.40
2022-08-31T18:15:11.584Z,17.30
2022-08-31T18:17:39.687Z,15.20
2022-08-31T18:20:08.163Z,16.50
2022-08-31T18:22:36.135Z,13.48
2022-08-31T18:25:04.317Z,15.85
2022-08-31T18:27:32.355Z,13.98
2022-08-31T18:30:01.974Z,15.00
2022-08-31T18:32:37.375Z,17.40
2022-08-31T18:35:14.782Z,14.18
2022-08-31T18:37:42.751Z,16.08
2022-08-31T18:40:29.572Z,17.17
2022-08-31T18:43:15.967Z,16.65
2022-08-31T18:45:48.492Z,18.33
2022-08-31T18:48:35.205Z,16.40
2022-08-31T18:51:04.504Z,16.73
2022-08-31T18:53:35.704Z,16.20
2022-08-31T18:56:08.136Z,17.92
2022-08-31T18:58:36.879Z,16.13
2022-08-31T19:01:05.221Z,16.33
2022-08-31T19:03:34.341Z,15.13
2022-08-31T19:06:02.301Z,13.10
2022-08-31T19:08:33.937Z,14.35
2022-08-31T19:11:03.153Z,15.43
2022-08-31T19:13:32.386Z,11.75
2022-08-31T19:16:15.120Z,12.45
2022-08-31T19:18:45.162Z,12.93
2022-08-31T19:21:23.236Z,11.93
2022-08-31T19:23:52.589Z,12.55
2022-08-31T19:26:28.149Z,14.60
2022-08-31T19:28:56.498Z,13.93
2022-08-31T19:31:25.634Z,10.10
2022-08-31T19:33:57.479Z,11.50
2022-08-31T19:36:25.847Z,12.57
2022-08-31T19:38:54.441Z,14.52
2022-08-31T19:41:23.598Z,14.30
2022-08-31T19:44:01.982Z,11.32
2022-08-31T19:46:34.079Z,10.40
2022-08-31T19:49:02.256Z,12.35
2022-08-31T19:51:31.626Z,12.23
2022-08-31T19:54:02.533Z,12.38
2022-08-31T19:56:33.414Z,12.20
2022-08-31T19:59:01.342Z,11.95
2022-08-31T20:01:34.260Z,12.95
2022-08-31T20:04:15.848Z,13.77
2022-08-31T20:06:46.589Z,14.02
2022-08-31T20:09:14.967Z,11.13
2022-08-31T20:11:42.836Z,12.40
2022-08-31T20:14:11.987Z,13.05
2022-08-31T20:16:43.028Z,13.15
2022-08-31T20:19:12.358Z,12.77
2022-08-31T20:21:42.626Z,9.85
2022-08-31T20:24:12.092Z,36.67
2022-08-31T20:26:47.451Z,11.70
2022-08-31T20:29:20.164Z,14.52
2022-08-31T20:31:50.191Z,13.00
2022-08-31T20:34:19.173Z,12.82
2022-08-31T20:36:50.376Z,11.07
2022-08-31T20:39:21.361Z,14.40
2022-08-31T20:41:50.904Z,11.48
2022-08-31T20:44:26.356Z,13.05
2022-08-31T20:47:14.062Z,15.20
2022-08-31T20:49:46.379Z,11.27
2022-08-31T20:52:15.438Z,10.43
2022-08-31T20:54:44.286Z,10.57
2022-08-31T20:57:12.778Z,11.30
2022-08-31T20:59:40.843Z,10.05
2022-08-31T21:02:09.474Z,12.40
2022-08-31T21:04:39.064Z,14.30
2022-08-31T21:07:07.909Z,14.30
2022-08-31T21:09:35.974Z,10.13
2022-08-31T21:12:05.054Z,14.25
2022-08-31T21:14:33.253Z,14.13
2022-08-31T21:17:02.284Z,12.10
2022-08-31T21:19:30.146Z,10.98
2022-08-31T21:22:03.448Z,12.70
2022-08-31T21:24:35.015Z,16.27
2022-08-31T21:27:04.067Z,13.00
2022-08-31T21:29:34.962Z,12.45
2022-08-31T21:32:04.092Z,9.98
2022-08-31T21:34:32.642Z,12.85
2022-08-31T21:37:00.512Z,18.85
2022-08-31T21:39:28.308Z,12.02
2022-08-31T21:41:57.252Z,12.85
2022-08-31T21:44:25.921Z,14.60
2022-08-31T21:46:54.108Z,16.30
2022-08-31T21:49:22.091Z,18.42
2022-08-31T21:51:51.865Z,19.00
2022-08-31T21:54:21.033Z,16.00
2022-08-31T21:56:53.403Z,14.55
2022-08-31T21:59:23.198Z,16.13
2022-08-31T22:01:52.155Z,20.63
2022-08-31T22:04:22.083Z,23.23
2022-08-31T22:06:50.826Z,17.52
2022-08-31T22:09:19.885Z,15.80
2022-08-31T22:11:50.646Z,15.00
2022-08-31T22:14:19.394Z,12.43
2022-08-31T22:16:47.740Z,12.77
2022-08-31T22:19:16.902Z,15.55
2022-08-31T22:21:45.990Z,12.68
2022-08-31T22:24:27.059Z,15.65
2022-08-31T22:26:56.266Z,15.10
2022-08-31T22:29:25.678Z,14.55
2022-08-31T22:31:55.020Z,14.48
2022-08-31T22:34:23.206Z,14.27
2022-08-31T22:36:53.268Z,14.90
2022-08-31T22:39:23.408Z,13.32
2022-08-31T22:41:52.578Z,15.45
2022-08-31T22:44:22.361Z,15.45
2022-08-31T22:46:50.285Z,13.77
2022-08-31T22:49:18.674Z,14.75
2022-08-31T22:51:49.728Z,12.20
2022-08-31T22:54:19.634Z,14.10
2022-08-31T22:56:47.780Z,12.60
2022-08-31T22:59:17.570Z,12.00
2022-08-31T23:01:48.747Z,14.20
2022-08-31T23:04:20.343Z,13.70
2022-08-31T23:06:49.844Z,17.40
2022-08-31T23:09:22.129Z,13.90
2022-08-31T23:11:50.747Z,12.27
2022-08-31T23:14:18.605Z,11.65
2022-08-31T23:16:47.942Z,10.75
2022-08-31T23:19:17.701Z,12.98
2022-08-31T23:21:53.003Z,13.20
2022-08-31T23:24:33.256Z,15.07
2022-08-31T23:27:04.709Z,12.80
2022-08-31T23:29:36.944Z,11.93
2022-08-31T23:32:05.713Z,13.98
2022-08-31T23:34:37.626Z,15.20
2022-08-31T23:37:09.202Z,11.90
2022-08-31T23:39:38.589Z,10.95
2022-08-31T23:42:07.588Z,14.90
2022-08-31T23:44:37.197Z,14.30
2022-08-31T23:47:05.136Z,12.75
2022-08-31T23:49:33.139Z,11.40
2022-08-31T23:52:00.912Z,12.60
2022-08-31T23:54:29.856Z,11.77
2022-08-31T23:56:59.196Z,11.48
2022-08-31T23:59:27.380Z,14.23
